sensor_id;sensor_type;location;lat;lon;timestamp;pressure;altitude;pressure_sealevel;temperature;humidity
11114;BME280;5610;52.154;9.198;2023-06-04T00:02:03;101284.69;;;11.26;81.22
11114;BME280;5610;52.154;9.198;2023-06-04T00:04:49;101283.91;;;11.24;95.05
11114;BME280;5610;52.154;9.198;2023-06-04T00:07:34;101286.06;;;11.33;94.47
11114;BME280;5610;52.154;9.198;2023-06-04T00:10:19;101291.84;;;11.41;96.52
11114;BME280;5610;52.154;9.198;2023-06-04T00:13:04;101279.88;;;11.33;100.00
11114;BME280;5610;52.154;9.198;2023-06-04T00:15:50;101273.34;;;11.38;99.38
11114;BME280;5610;52.154;9.198;2023-06-04T00:18:37;101280.66;;;11.35;100.00
11114;BME280;5610;52.154;9.198;2023-06-04T00:21:22;101279.88;;;11.33;99.14
11114;BME280;5610;52.154;9.198;2023-06-04T00:24:07;101284.47;;;11.13;100.00
11114;BME280;5610;52.154;9.198;2023-06-04T00:26:53;101279.00;;;11.16;100.00
11114;BME280;5610;52.154;9.198;2023-06-04T00:29:38;101283.69;;;11.11;100.00
11114;BME280;5610;52.154;9.198;2023-06-04T00:32:23;101279.72;;;11.03;100.00
11114;BME280;5610;52.154;9.198;2023-06-04T00:35:10;101289.78;;;10.97;100.00
11114;BME280;5610;52.154;9.198;2023-06-04T00:37:55;101284.22;;;10.85;100.00
11114;BME280;5610;52.154;9.198;2023-06-04T00:40:41;101283.66;;;10.78;100.00
11114;BME280;5610;52.154;9.198;2023-06-04T00:43:26;101285.41;;;10.79;100.00
11114;BME280;5610;52.154;9.198;2023-06-04T00:46:12;101278.19;;;10.81;100.00
11114;BME280;5610;52.154;9.198;2023-06-04T00:49:02;101278.19;;;10.81;100.00
11114;BME280;5610;52.154;9.198;2023-06-04T00:51:49;101276.78;;;10.74;100.00
11114;BME280;5610;52.154;9.198;2023-06-04T00:54:35;101275.94;;;10.73;100.00
11114;BME280;5610;52.154;9.198;2023-06-04T00:57:21;101274.75;;;10.62;100.00
11114;BME280;5610;52.154;9.198;2023-06-04T01:00:07;101277.97;;;10.68;100.00
11114;BME280;5610;52.154;9.198;2023-06-04T01:02:53;101280.72;;;10.67;100.00
11114;BME280;5610;52.154;9.198;2023-06-04T01:05:41;101278.69;;;10.55;100.00
11114;BME280;5610;52.154;9.198;2023-06-04T01:08:33;101278.28;;;10.45;100.00
11114;BME280;5610;52.154;9.198;2023-06-04T01:11:19;101273.75;;;10.47;100.00
11114;BME280;5610;52.154;9.198;2023-06-04T01:14:05;101278.59;;;10.39;100.00
11114;BME280;5610;52.154;9.198;2023-06-04T01:16:56;101277.19;;;10.32;100.00
11114;BME280;5610;52.154;9.198;2023-06-04T01:23:22;101274.34;;;10.35;100.00
11114;BME280;5610;52.154;9.198;2023-06-04T01:26:13;101274.66;;;10.29;100.00
11114;BME280;5610;52.154;9.198;2023-06-04T01:29:00;101277.81;;;10.37;100.00
11114;BME280;5610;52.154;9.198;2023-06-04T01:31:46;101270.53;;;10.23;100.00
11114;BME280;5610;52.154;9.198;2023-06-04T01:34:43;101276.53;;;10.27;100.00
11114;BME280;5610;52.154;9.198;2023-06-04T01:37:28;101267.78;;;10.25;100.00
11114;BME280;5610;52.154;9.198;2023-06-04T01:40:14;101274.16;;;10.21;100.00
11114;BME280;5610;52.154;9.198;2023-06-04T01:43:01;101265.47;;;10.17;100.00
11114;BME280;5610;52.154;9.198;2023-06-04T01:45:46;101260.53;;;10.09;100.00
11114;BME280;5610;52.154;9.198;2023-06-04T01:48:32;101261.22;;;9.96;100.00
11114;BME280;5610;52.154;9.198;2023-06-04T01:51:17;101254.25;;;10.10;100.00
11114;BME280;5610;52.154;9.198;2023-06-04T01:54:03;101265.78;;;10.11;100.00
11114;BME280;5610;52.154;9.198;2023-06-04T01:56:48;101273.75;;;10.11;100.00
11114;BME280;5610;52.154;9.198;2023-06-04T01:59:34;101278.59;;;10.03;100.00
11114;BME280;5610;52.154;9.198;2023-06-04T02:02:20;101274.44;;;9.97;100.00
11114;BME280;5610;52.154;9.198;2023-06-04T02:05:06;101267.69;;;9.90;100.00
11114;BME280;5610;52.154;9.198;2023-06-04T02:07:52;101266.19;;;9.84;100.00
11114;BME280;5610;52.154;9.198;2023-06-04T02:10:38;101270.25;;;9.74;100.00
11114;BME280;5610;52.154;9.198;2023-06-04T02:13:23;101276.56;;;9.72;100.00
11114;BME280;5610;52.154;9.198;2023-06-04T02:16:09;101275.75;;;9.70;100.00
11114;BME280;5610;52.154;9.198;2023-06-04T02:18:55;101275.00;;;9.68;100.00
11114;BME280;5610;52.154;9.198;2023-06-04T02:21:40;101279.22;;;9.72;100.00
11114;BME280;5610;52.154;9.198;2023-06-04T02:24:25;101275.63;;;9.73;100.00
11114;BME280;5610;52.154;9.198;2023-06-04T02:27:11;101267.13;;;9.64;100.00
11114;BME280;5610;52.154;9.198;2023-06-04T02:29:57;101268.44;;;9.56;100.00
11114;BME280;5610;52.154;9.198;2023-06-04T02:32:44;101270.72;;;9.63;100.00
11114;BME280;5610;52.154;9.198;2023-06-04T02:35:30;101264.72;;;9.60;100.00
11114;BME280;5610;52.154;9.198;2023-06-04T02:38:16;101275.94;;;9.67;100.00
11114;BME280;5610;52.154;9.198;2023-06-04T02:41:01;101275.97;;;9.65;100.00
11114;BME280;5610;52.154;9.198;2023-06-04T02:43:46;101272.44;;;9.64;100.00
11114;BME280;5610;52.154;9.198;2023-06-04T02:46:32;101274.03;;;9.50;100.00
11114;BME280;5610;52.154;9.198;2023-06-04T02:49:18;101272.19;;;9.52;100.00
11114;BME280;5610;52.154;9.198;2023-06-04T02:52:04;101278.75;;;9.45;100.00
11114;BME280;5610;52.154;9.198;2023-06-04T02:54:50;101274.19;;;9.47;100.00
11114;BME280;5610;52.154;9.198;2023-06-04T02:57:35;101274.41;;;9.42;100.00
11114;BME280;5610;52.154;9.198;2023-06-04T03:00:20;101282.38;;;9.42;100.00
11114;BME280;5610;52.154;9.198;2023-06-04T03:03:06;101286.25;;;9.35;100.00
11114;BME280;5610;52.154;9.198;2023-06-04T03:05:52;101283.69;;;9.33;100.00
11114;BME280;5610;52.154;9.198;2023-06-04T03:08:37;101283.75;;;9.32;100.00
11114;BME280;5610;52.154;9.198;2023-06-04T03:11:27;101287.41;;;9.11;100.00
11114;BME280;5610;52.154;9.198;2023-06-04T03:14:12;101282.31;;;9.25;100.00
11114;BME280;5610;52.154;9.198;2023-06-04T03:16:59;101287.84;;;9.20;100.00
11114;BME280;5610;52.154;9.198;2023-06-04T03:19:50;101289.06;;;9.32;100.00
11114;BME280;5610;52.154;9.198;2023-06-04T03:22:37;101293.59;;;9.30;100.00
11114;BME280;5610;52.154;9.198;2023-06-04T03:25:22;101289.00;;;9.33;100.00
11114;BME280;5610;52.154;9.198;2023-06-04T03:28:07;101285.69;;;9.28;100.00
11114;BME280;5610;52.154;9.198;2023-06-04T03:30:53;101294.59;;;9.27;100.00
11114;BME280;5610;52.154;9.198;2023-06-04T03:33:40;101287.84;;;9.20;100.00
11114;BME280;5610;52.154;9.198;2023-06-04T03:36:25;101279.66;;;9.25;100.00
11114;BME280;5610;52.154;9.198;2023-06-04T03:39:17;101272.66;;;9.22;100.00
11114;BME280;5610;52.154;9.198;2023-06-04T03:42:03;101281.19;;;9.30;100.00
11114;BME280;5610;52.154;9.198;2023-06-04T03:44:50;101279.06;;;9.37;100.00
11114;BME280;5610;52.154;9.198;2023-06-04T03:47:35;101285.28;;;9.38;100.00
11114;BME280;5610;52.154;9.198;2023-06-04T03:50:21;101278.16;;;9.38;100.00
11114;BME280;5610;52.154;9.198;2023-06-04T03:53:08;101280.88;;;9.36;100.00
11114;BME280;5610;52.154;9.198;2023-06-04T03:55:55;101289.94;;;9.51;100.00
11114;BME280;5610;52.154;9.198;2023-06-04T03:58:40;101292.59;;;9.51;100.00
11114;BME280;5610;52.154;9.198;2023-06-04T04:01:26;101297.25;;;9.65;100.00
11114;BME280;5610;52.154;9.198;2023-06-04T04:04:12;101293.31;;;9.74;100.00
11114;BME280;5610;52.154;9.198;2023-06-04T04:06:58;101286.41;;;9.70;100.00
11114;BME280;5610;52.154;9.198;2023-06-04T04:09:44;101292.31;;;9.76;100.00
11114;BME280;5610;52.154;9.198;2023-06-04T04:12:30;101294.75;;;9.81;100.00
11114;BME280;5610;52.154;9.198;2023-06-04T04:15:16;101291.84;;;9.85;100.00
11114;BME280;5610;52.154;9.198;2023-06-04T04:18:02;101296.09;;;9.89;100.00
11114;BME280;5610;52.154;9.198;2023-06-04T04:20:47;101295.91;;;9.94;100.00
11114;BME280;5610;52.154;9.198;2023-06-04T04:23:33;101293.00;;;9.99;100.00
11114;BME280;5610;52.154;9.198;2023-06-04T04:26:20;101300.75;;;10.03;100.00
11114;BME280;5610;52.154;9.198;2023-06-04T04:29:10;101298.59;;;10.11;100.00
11114;BME280;5610;52.154;9.198;2023-06-04T04:31:57;101301.53;;;10.05;100.00
11114;BME280;5610;52.154;9.198;2023-06-04T04:34:54;101298.97;;;10.21;100.00
11114;BME280;5610;52.154;9.198;2023-06-04T04:37:45;101295.19;;;10.27;100.00
11114;BME280;5610;52.154;9.198;2023-06-04T04:40:32;101297.34;;;10.37;100.00
11114;BME280;5610;52.154;9.198;2023-06-04T04:43:28;101292.78;;;10.39;100.00
11114;BME280;5610;52.154;9.198;2023-06-04T04:46:16;101289.41;;;10.53;100.00
11114;BME280;5610;52.154;9.198;2023-06-04T04:49:02;101296.06;;;10.62;100.00
11114;BME280;5610;52.154;9.198;2023-06-04T04:51:47;101300.22;;;10.67;100.00
11114;BME280;5610;52.154;9.198;2023-06-04T04:54:34;101285.09;;;10.68;100.00
11114;BME280;5610;52.154;9.198;2023-06-04T04:57:20;101295.38;;;10.76;100.00
11114;BME280;5610;52.154;9.198;2023-06-04T05:00:09;101292.28;;;10.83;100.00
11114;BME280;5610;52.154;9.198;2023-06-04T05:02:59;101301.69;;;10.90;100.00
11114;BME280;5610;52.154;9.198;2023-06-04T05:05:44;101307.56;;;10.97;100.00
11114;BME280;5610;52.154;9.198;2023-06-04T05:08:30;101298.63;;;10.98;100.00
11114;BME280;5610;52.154;9.198;2023-06-04T05:11:16;101304.34;;;11.08;100.00
11114;BME280;5610;52.154;9.198;2023-06-04T05:14:03;101301.50;;;11.11;100.00
11114;BME280;5610;52.154;9.198;2023-06-04T05:16:50;101299.19;;;11.20;100.00
11114;BME280;5610;52.154;9.198;2023-06-04T05:19:37;101301.31;;;11.31;100.00
11114;BME280;5610;52.154;9.198;2023-06-04T05:22:23;101307.41;;;11.33;100.00
11114;BME280;5610;52.154;9.198;2023-06-04T05:25:12;101315.81;;;11.43;100.00
11114;BME280;5610;52.154;9.198;2023-06-04T05:27:57;101310.19;;;11.47;100.00
11114;BME280;5610;52.154;9.198;2023-06-04T05:30:43;101315.53;;;11.47;100.00
11114;BME280;5610;52.154;9.198;2023-06-04T05:33:30;101321.31;;;11.55;100.00
11114;BME280;5610;52.154;9.198;2023-06-04T05:36:21;101310.56;;;11.57;100.00
11114;BME280;5610;52.154;9.198;2023-06-04T05:39:12;101309.88;;;11.69;100.00
11114;BME280;5610;52.154;9.198;2023-06-04T05:42:07;101310.34;;;11.77;100.00
11114;BME280;5610;52.154;9.198;2023-06-04T05:44:53;101313.47;;;11.86;100.00
11114;BME280;5610;52.154;9.198;2023-06-04T05:47:40;101318.09;;;11.98;100.00
11114;BME280;5610;52.154;9.198;2023-06-04T05:50:26;101320.34;;;12.05;100.00
11114;BME280;5610;52.154;9.198;2023-06-04T05:53:12;101314.28;;;12.18;100.00
11114;BME280;5610;52.154;9.198;2023-06-04T05:55:58;101314.44;;;12.30;100.00
11114;BME280;5610;52.154;9.198;2023-06-04T05:58:43;101317.53;;;12.38;100.00
11114;BME280;5610;52.154;9.198;2023-06-04T06:01:29;101318.53;;;12.52;100.00
11114;BME280;5610;52.154;9.198;2023-06-04T06:04:15;101322.41;;;12.62;100.00
11114;BME280;5610;52.154;9.198;2023-06-04T06:07:01;101316.50;;;12.71;100.00
11114;BME280;5610;52.154;9.198;2023-06-04T06:09:48;101325.78;;;12.80;100.00
11114;BME280;5610;52.154;9.198;2023-06-04T06:12:33;101323.22;;;12.92;100.00
11114;BME280;5610;52.154;9.198;2023-06-04T06:15:18;101322.88;;;12.99;100.00
11114;BME280;5610;52.154;9.198;2023-06-04T06:18:06;101324.69;;;13.12;100.00
11114;BME280;5610;52.154;9.198;2023-06-04T06:20:51;101327.69;;;13.22;100.00
11114;BME280;5610;52.154;9.198;2023-06-04T06:23:37;101333.06;;;13.36;100.00
11114;BME280;5610;52.154;9.198;2023-06-04T06:26:24;101329.72;;;13.47;100.00
11114;BME280;5610;52.154;9.198;2023-06-04T06:29:13;101327.03;;;13.61;100.00
11114;BME280;5610;52.154;9.198;2023-06-04T06:31:59;101327.00;;;13.76;100.00
11114;BME280;5610;52.154;9.198;2023-06-04T06:34:45;101333.78;;;13.81;100.00
11114;BME280;5610;52.154;9.198;2023-06-04T06:37:30;101332.41;;;14.02;100.00
11114;BME280;5610;52.154;9.198;2023-06-04T06:40:15;101334.84;;;14.20;100.00
11114;BME280;5610;52.154;9.198;2023-06-04T06:43:02;101337.97;;;14.26;100.00
11114;BME280;5610;52.154;9.198;2023-06-04T06:45:47;101340.38;;;14.44;100.00
11114;BME280;5610;52.154;9.198;2023-06-04T06:48:32;101332.44;;;14.56;100.00
11114;BME280;5610;52.154;9.198;2023-06-04T06:51:18;101351.38;;;14.80;100.00
11114;BME280;5610;52.154;9.198;2023-06-04T06:54:03;101358.28;;;14.97;100.00
11114;BME280;5610;52.154;9.198;2023-06-04T06:56:48;101342.19;;;15.10;100.00
11114;BME280;5610;52.154;9.198;2023-06-04T06:59:36;101349.28;;;15.24;100.00
11114;BME280;5610;52.154;9.198;2023-06-04T07:02:21;101355.72;;;15.34;100.00
11114;BME280;5610;52.154;9.198;2023-06-04T07:05:07;101353.13;;;15.45;100.00
11114;BME280;5610;52.154;9.198;2023-06-04T07:07:52;101347.97;;;15.55;100.00
11114;BME280;5610;52.154;9.198;2023-06-04T07:10:38;101351.53;;;15.68;100.00
11114;BME280;5610;52.154;9.198;2023-06-04T07:13:23;101342.78;;;15.90;100.00
11114;BME280;5610;52.154;9.198;2023-06-04T07:16:10;101341.94;;;16.13;100.00
11114;BME280;5610;52.154;9.198;2023-06-04T07:18:55;101347.47;;;16.36;100.00
11114;BME280;5610;52.154;9.198;2023-06-04T07:21:41;101338.13;;;16.53;92.92
11114;BME280;5610;52.154;9.198;2023-06-04T07:24:26;101345.16;;;16.66;89.89
11114;BME280;5610;52.154;9.198;2023-06-04T07:27:12;101345.72;;;16.83;89.33
11114;BME280;5610;52.154;9.198;2023-06-04T07:29:58;101344.19;;;17.02;92.90
11114;BME280;5610;52.154;9.198;2023-06-04T07:32:47;101343.75;;;17.20;88.72
11114;BME280;5610;52.154;9.198;2023-06-04T07:35:33;101338.00;;;17.36;83.88
11114;BME280;5610;52.154;9.198;2023-06-04T07:38:18;101343.66;;;17.55;82.90
11114;BME280;5610;52.154;9.198;2023-06-04T07:41:04;101345.13;;;17.70;73.29
11114;BME280;5610;52.154;9.198;2023-06-04T07:43:49;101341.81;;;17.89;72.95
11114;BME280;5610;52.154;9.198;2023-06-04T07:46:35;101345.13;;;17.93;70.26
11114;BME280;5610;52.154;9.198;2023-06-04T07:49:21;101344.31;;;18.24;67.96
11114;BME280;5610;52.154;9.198;2023-06-04T07:52:07;101343.28;;;18.48;67.73
11114;BME280;5610;52.154;9.198;2023-06-04T07:54:52;101341.38;;;18.71;64.31
11114;BME280;5610;52.154;9.198;2023-06-04T07:57:37;101335.00;;;18.92;64.92
11114;BME280;5610;52.154;9.198;2023-06-04T08:00:23;101342.25;;;19.13;58.90
11114;BME280;5610;52.154;9.198;2023-06-04T08:03:08;101343.47;;;19.30;58.15
11114;BME280;5610;52.154;9.198;2023-06-04T08:05:55;101347.34;;;19.37;59.68
11114;BME280;5610;52.154;9.198;2023-06-04T08:08:42;101348.94;;;19.60;61.07
11114;BME280;5610;52.154;9.198;2023-06-04T08:11:29;101344.16;;;19.73;56.70
11114;BME280;5610;52.154;9.198;2023-06-04T08:14:14;101341.34;;;19.94;55.39
11114;BME280;5610;52.154;9.198;2023-06-04T08:16:59;101341.69;;;20.11;56.29
11114;BME280;5610;52.154;9.198;2023-06-04T08:19:44;101348.84;;;20.31;54.65
11114;BME280;5610;52.154;9.198;2023-06-04T08:22:31;101348.31;;;20.47;55.88
11114;BME280;5610;52.154;9.198;2023-06-04T08:25:16;101349.03;;;20.68;53.84
11114;BME280;5610;52.154;9.198;2023-06-04T08:28:02;101343.63;;;20.68;52.73
11114;BME280;5610;52.154;9.198;2023-06-04T08:30:48;101345.75;;;20.94;52.72
11114;BME280;5610;52.154;9.198;2023-06-04T08:33:33;101346.44;;;21.05;49.91
11114;BME280;5610;52.154;9.198;2023-06-04T08:36:18;101353.41;;;21.18;49.40
11114;BME280;5610;52.154;9.198;2023-06-04T08:39:05;101350.22;;;21.42;53.32
11114;BME280;5610;52.154;9.198;2023-06-04T08:41:52;101357.56;;;21.69;52.64
11114;BME280;5610;52.154;9.198;2023-06-04T08:44:39;101351.44;;;21.94;54.04
11114;BME280;5610;52.154;9.198;2023-06-04T08:47:26;101349.34;;;22.15;52.17
11114;BME280;5610;52.154;9.198;2023-06-04T08:50:16;101347.22;;;22.37;50.47
11114;BME280;5610;52.154;9.198;2023-06-04T08:53:02;101349.91;;;22.55;48.31
11114;BME280;5610;52.154;9.198;2023-06-04T08:55:50;101350.31;;;22.60;44.41
11114;BME280;5610;52.154;9.198;2023-06-04T08:58:40;101354.50;;;22.90;44.21
11114;BME280;5610;52.154;9.198;2023-06-04T09:01:26;101342.16;;;22.95;43.04
11114;BME280;5610;52.154;9.198;2023-06-04T09:04:11;101340.47;;;22.77;43.32
11114;BME280;5610;52.154;9.198;2023-06-04T09:07:00;101338.53;;;23.05;42.74
11114;BME280;5610;52.154;9.198;2023-06-04T09:09:47;101341.22;;;23.30;43.30
11114;BME280;5610;52.154;9.198;2023-06-04T09:12:36;101332.69;;;23.51;43.37
11114;BME280;5610;52.154;9.198;2023-06-04T09:15:21;101330.13;;;23.50;42.41
11114;BME280;5610;52.154;9.198;2023-06-04T09:18:07;101339.75;;;23.96;42.43
11114;BME280;5610;52.154;9.198;2023-06-04T09:21:00;101338.94;;;24.12;38.67
11114;BME280;5610;52.154;9.198;2023-06-04T09:23:46;101345.44;;;24.27;38.46
11114;BME280;5610;52.154;9.198;2023-06-04T09:26:32;101343.47;;;24.54;42.09
11114;BME280;5610;52.154;9.198;2023-06-04T09:29:18;101345.00;;;24.56;40.48
11114;BME280;5610;52.154;9.198;2023-06-04T09:32:04;101350.44;;;24.48;40.04
11114;BME280;5610;52.154;9.198;2023-06-04T09:34:50;101346.38;;;24.69;38.33
11114;BME280;5610;52.154;9.198;2023-06-04T09:37:36;101353.22;;;25.13;38.36
11114;BME280;5610;52.154;9.198;2023-06-04T09:40:22;101345.16;;;25.44;37.58
11114;BME280;5610;52.154;9.198;2023-06-04T09:43:07;101349.34;;;25.80;37.64
11114;BME280;5610;52.154;9.198;2023-06-04T09:45:54;101351.50;;;25.84;35.85
11114;BME280;5610;52.154;9.198;2023-06-04T09:48:40;101345.91;;;26.17;35.89
11114;BME280;5610;52.154;9.198;2023-06-04T09:51:26;101344.41;;;26.45;36.64
11114;BME280;5610;52.154;9.198;2023-06-04T09:54:11;101335.72;;;26.65;34.49
11114;BME280;5610;52.154;9.198;2023-06-04T09:56:56;101341.59;;;26.99;34.20
11114;BME280;5610;52.154;9.198;2023-06-04T09:59:43;101332.59;;;27.14;31.87
11114;BME280;5610;52.154;9.198;2023-06-04T10:02:30;101341.91;;;27.19;32.72
11114;BME280;5610;52.154;9.198;2023-06-04T10:05:16;101329.38;;;27.54;34.13
11114;BME280;5610;52.154;9.198;2023-06-04T10:08:04;101333.75;;;27.93;35.81
11114;BME280;5610;52.154;9.198;2023-06-04T10:10:51;101327.88;;;27.96;32.74
11114;BME280;5610;52.154;9.198;2023-06-04T10:13:43;101324.88;;;28.27;32.63
11114;BME280;5610;52.154;9.198;2023-06-04T10:16:31;101326.34;;;28.44;32.96
11114;BME280;5610;52.154;9.198;2023-06-04T10:19:18;101329.56;;;28.69;33.32
11114;BME280;5610;52.154;9.198;2023-06-04T10:22:04;101323.31;;;28.97;31.76
11114;BME280;5610;52.154;9.198;2023-06-04T10:24:49;101323.53;;;29.30;30.64
11114;BME280;5610;52.154;9.198;2023-06-04T10:27:35;101322.28;;;29.61;32.19
11114;BME280;5610;52.154;9.198;2023-06-04T10:30:20;101326.34;;;29.71;31.34
11114;BME280;5610;52.154;9.198;2023-06-04T10:33:05;101323.22;;;29.88;30.79
11114;BME280;5610;52.154;9.198;2023-06-04T10:35:54;101323.06;;;29.96;29.18
11114;BME280;5610;52.154;9.198;2023-06-04T10:38:45;101317.88;;;30.14;27.89
11114;BME280;5610;52.154;9.198;2023-06-04T10:41:30;101322.16;;;30.36;31.00
11114;BME280;5610;52.154;9.198;2023-06-04T10:44:16;101321.97;;;30.58;29.40
11114;BME280;5610;52.154;9.198;2023-06-04T10:47:01;101320.13;;;30.92;29.81
11114;BME280;5610;52.154;9.198;2023-06-04T10:49:46;101327.31;;;31.39;30.32
11114;BME280;5610;52.154;9.198;2023-06-04T10:52:33;101330.28;;;31.51;28.81
11114;BME280;5610;52.154;9.198;2023-06-04T10:55:19;101327.59;;;31.95;27.50
11114;BME280;5610;52.154;9.198;2023-06-04T10:58:04;101319.78;;;31.86;26.04
11114;BME280;5610;52.154;9.198;2023-06-04T11:00:49;101318.50;;;32.65;25.42
11114;BME280;5610;52.154;9.198;2023-06-04T11:03:35;101312.94;;;34.61;25.03
11114;BME280;5610;52.154;9.198;2023-06-04T11:06:21;101316.16;;;36.73;23.53
11114;BME280;5610;52.154;9.198;2023-06-04T11:09:13;101305.94;;;39.35;22.28
11114;BME280;5610;52.154;9.198;2023-06-04T11:12:00;101301.03;;;41.06;22.77
11114;BME280;5610;52.154;9.198;2023-06-04T11:14:55;101296.25;;;42.02;21.08
11114;BME280;5610;52.154;9.198;2023-06-04T11:17:51;101293.00;;;43.26;18.94
11114;BME280;5610;52.154;9.198;2023-06-04T11:20:36;101287.16;;;43.47;18.92
11114;BME280;5610;52.154;9.198;2023-06-04T11:23:21;101290.78;;;44.14;19.39
11114;BME280;5610;52.154;9.198;2023-06-04T11:26:09;101285.06;;;45.03;19.84
11114;BME280;5610;52.154;9.198;2023-06-04T11:28:55;101279.41;;;45.50;19.65
11114;BME280;5610;52.154;9.198;2023-06-04T11:31:42;101276.50;;;46.05;18.69
11114;BME280;5610;52.154;9.198;2023-06-04T11:34:29;101277.44;;;46.36;16.97
11114;BME280;5610;52.154;9.198;2023-06-04T11:37:15;101275.31;;;45.83;17.00
11114;BME280;5610;52.154;9.198;2023-06-04T11:40:00;101258.47;;;47.04;17.72
11114;BME280;5610;52.154;9.198;2023-06-04T11:42:50;101271.63;;;47.08;18.58
11114;BME280;5610;52.154;9.198;2023-06-04T11:45:36;101268.69;;;47.22;16.91
11114;BME280;5610;52.154;9.198;2023-06-04T11:48:22;101260.91;;;47.28;16.61
11114;BME280;5610;52.154;9.198;2023-06-04T11:51:07;101266.50;;;47.19;19.06
11114;BME280;5610;52.154;9.198;2023-06-04T11:53:53;101260.38;;;48.26;17.66
11114;BME280;5610;52.154;9.198;2023-06-04T11:56:39;101264.72;;;48.41;16.07
11114;BME280;5610;52.154;9.198;2023-06-04T11:59:26;101265.56;;;48.24;16.16
11114;BME280;5610;52.154;9.198;2023-06-04T12:02:12;101265.09;;;48.31;15.92
11114;BME280;5610;52.154;9.198;2023-06-04T12:04:57;101266.56;;;48.02;16.26
11114;BME280;5610;52.154;9.198;2023-06-04T12:07:42;101263.59;;;48.07;17.06
11114;BME280;5610;52.154;9.198;2023-06-04T12:10:28;101267.56;;;48.50;16.09
11114;BME280;5610;52.154;9.198;2023-06-04T12:13:13;101262.72;;;47.81;16.02
11114;BME280;5610;52.154;9.198;2023-06-04T12:16:00;101253.59;;;48.19;16.60
11114;BME280;5610;52.154;9.198;2023-06-04T12:18:45;101247.81;;;48.88;16.07
11114;BME280;5610;52.154;9.198;2023-06-04T12:21:31;101250.28;;;48.17;16.24
11114;BME280;5610;52.154;9.198;2023-06-04T12:24:17;101248.38;;;48.73;16.34
11114;BME280;5610;52.154;9.198;2023-06-04T12:27:03;101243.78;;;48.16;16.31
11114;BME280;5610;52.154;9.198;2023-06-04T12:29:57;101246.31;;;48.00;16.52
11114;BME280;5610;52.154;9.198;2023-06-04T12:32:43;101249.09;;;48.26;16.09
11114;BME280;5610;52.154;9.198;2023-06-04T12:35:29;101245.06;;;47.93;17.09
11114;BME280;5610;52.154;9.198;2023-06-04T12:38:14;101247.41;;;47.91;16.91
11114;BME280;5610;52.154;9.198;2023-06-04T12:40:59;101249.25;;;48.30;16.74
11114;BME280;5610;52.154;9.198;2023-06-04T12:43:45;101242.63;;;48.08;16.80
11114;BME280;5610;52.154;9.198;2023-06-04T12:46:30;101248.19;;;47.56;17.32
11114;BME280;5610;52.154;9.198;2023-06-04T12:49:17;101240.41;;;47.62;16.29
11114;BME280;5610;52.154;9.198;2023-06-04T12:52:02;101237.78;;;47.74;16.18
11114;BME280;5610;52.154;9.198;2023-06-04T12:54:47;101241.44;;;47.92;15.98
11114;BME280;5610;52.154;9.198;2023-06-04T12:57:33;101235.81;;;48.91;16.09
11114;BME280;5610;52.154;9.198;2023-06-04T13:00:19;101233.44;;;48.46;16.44
11114;BME280;5610;52.154;9.198;2023-06-04T13:03:04;101234.31;;;48.38;17.59
11114;BME280;5610;52.154;9.198;2023-06-04T13:05:51;101237.97;;;48.12;17.16
11114;BME280;5610;52.154;9.198;2023-06-04T13:08:37;101216.66;;;48.41;16.22
11114;BME280;5610;52.154;9.198;2023-06-04T13:11:23;101225.97;;;48.41;16.86
11114;BME280;5610;52.154;9.198;2023-06-04T13:14:09;101222.59;;;48.65;17.05
11114;BME280;5610;52.154;9.198;2023-06-04T13:16:54;101219.25;;;48.63;17.27
11114;BME280;5610;52.154;9.198;2023-06-04T13:19:39;101228.19;;;48.83;16.93
11114;BME280;5610;52.154;9.198;2023-06-04T13:22:26;101215.03;;;48.87;16.59
11114;BME280;5610;52.154;9.198;2023-06-04T13:25:11;101222.56;;;49.21;16.15
11114;BME280;5610;52.154;9.198;2023-06-04T13:27:56;101222.22;;;49.22;15.76
11114;BME280;5610;52.154;9.198;2023-06-04T13:30:41;101220.03;;;49.19;16.44
11114;BME280;5610;52.154;9.198;2023-06-04T13:33:26;101216.66;;;48.96;16.33
11114;BME280;5610;52.154;9.198;2023-06-04T13:36:12;101214.63;;;48.59;15.88
11114;BME280;5610;52.154;9.198;2023-06-04T13:38:58;101215.69;;;48.84;16.05
11114;BME280;5610;52.154;9.198;2023-06-04T13:41:43;101211.13;;;48.71;15.04
11114;BME280;5610;52.154;9.198;2023-06-04T13:44:29;101214.50;;;48.93;15.73
11114;BME280;5610;52.154;9.198;2023-06-04T13:47:14;101203.28;;;49.14;14.99
11114;BME280;5610;52.154;9.198;2023-06-04T13:50:00;101210.97;;;48.58;16.39
11114;BME280;5610;52.154;9.198;2023-06-04T13:52:46;101200.78;;;48.75;15.33
11114;BME280;5610;52.154;9.198;2023-06-04T13:55:32;101203.66;;;48.49;15.28
11114;BME280;5610;52.154;9.198;2023-06-04T13:58:17;101192.91;;;48.33;15.46
11114;BME280;5610;52.154;9.198;2023-06-04T14:01:02;101202.22;;;46.23;17.66
11114;BME280;5610;52.154;9.198;2023-06-04T14:03:48;101190.47;;;44.15;18.39
11114;BME280;5610;52.154;9.198;2023-06-04T14:06:34;101196.06;;;42.33;19.04
11114;BME280;5610;52.154;9.198;2023-06-04T14:09:21;101189.03;;;40.06;22.02
11114;BME280;5610;52.154;9.198;2023-06-04T14:12:08;101187.19;;;38.54;22.48
11114;BME280;5610;52.154;9.198;2023-06-04T14:14:53;101188.41;;;37.50;23.05
11114;BME280;5610;52.154;9.198;2023-06-04T14:17:39;101191.19;;;36.56;24.28
11114;BME280;5610;52.154;9.198;2023-06-04T14:20:24;101191.84;;;35.84;25.87
11114;BME280;5610;52.154;9.198;2023-06-04T14:23:10;101186.91;;;35.17;25.77
11114;BME280;5610;52.154;9.198;2023-06-04T14:25:56;101185.69;;;34.66;26.69
11114;BME280;5610;52.154;9.198;2023-06-04T14:28:42;101191.28;;;34.13;27.50
11114;BME280;5610;52.154;9.198;2023-06-04T14:31:28;101194.44;;;33.38;26.73
11114;BME280;5610;52.154;9.198;2023-06-04T14:34:13;101192.19;;;32.92;27.33
11114;BME280;5610;52.154;9.198;2023-06-04T14:36:59;101197.16;;;32.58;29.08
11114;BME280;5610;52.154;9.198;2023-06-04T14:39:44;101190.38;;;32.29;28.25
11114;BME280;5610;52.154;9.198;2023-06-04T14:42:29;101190.84;;;31.94;29.47